createdAt,value
2017-09-21T00:00:20.523Z,50.6
2017-09-21T00:02:53.613Z,50.7
2017-09-21T00:03:55.408Z,50.5
2017-09-21T00:04:57.536Z,50.8
2017-09-21T00:05:59.667Z,50.7
2017-09-21T00:07:01.792Z,50.5
2017-09-21T00:08:03.271Z,50.6
2017-09-21T00:09:05.060Z,50.9
2017-09-21T00:10:07.185Z,50.6
2017-09-21T00:11:09.311Z,50.6
2017-09-21T00:12:11.439Z,50.7
2017-09-21T00:13:12.897Z,50.6
2017-09-21T00:14:15.024Z,50.5
2017-09-21T00:15:16.833Z,50.6
2017-09-21T00:16:18.268Z,50.9
2017-09-21T00:17:19.723Z,50.6
2017-09-21T00:18:20.823Z,50.6
2017-09-21T00:19:22.282Z,50.9
2017-09-21T00:20:24.052Z,51
2017-09-21T00:21:25.491Z,50.6
2017-09-21T00:22:27.284Z,51
2017-09-21T00:23:29.078Z,51
2017-09-21T00:24:30.879Z,50.8
2017-09-21T00:25:33.006Z,50.7
2017-09-21T00:26:34.109Z,50.4
2017-09-21T00:27:35.901Z,50.5
2017-09-21T00:28:37.038Z,50.4
2017-09-21T00:29:38.808Z,50.5
2017-09-21T00:30:40.600Z,50.5
2017-09-21T00:31:42.727Z,50.9
2017-09-21T00:32:44.522Z,50.4
2017-09-21T00:33:45.296Z,51
2017-09-21T00:34:46.067Z,51
2017-09-21T00:35:47.858Z,50.7
2017-09-21T00:36:49.988Z,51
2017-09-21T00:37:51.777Z,50.7
2017-09-21T00:38:53.905Z,50.5
2017-09-21T00:39:55.699Z,50.4
2017-09-21T00:40:57.833Z,50.5
2017-09-21T00:41:59.957Z,50.5
2017-09-21T00:43:01.397Z,50.4
2017-09-21T00:44:03.169Z,50.5
2017-09-21T00:45:04.270Z,50.4
2017-09-21T00:46:05.707Z,50.6
2017-09-21T00:47:07.500Z,50.9
2017-09-21T00:48:08.602Z,50.5
2017-09-21T00:49:10.396Z,50.5
2017-09-21T00:50:11.853Z,51
2017-09-21T00:51:13.647Z,50.6
2017-09-21T00:52:15.775Z,50.5
2017-09-21T00:53:17.900Z,50.5
2017-09-21T00:54:19.358Z,50.4
2017-09-21T00:55:20.795Z,50.5
2017-09-21T00:56:22.566Z,50.4
2017-09-21T00:57:23.688Z,50.5
2017-09-21T00:58:25.820Z,50.5
2017-09-21T00:59:27.257Z,50.8
2017-09-21T01:00:29.052Z,50.7
2017-09-21T01:01:30.847Z,50.8
2017-09-21T01:02:32.973Z,50.5
2017-09-21T01:03:34.077Z,50.3
2017-09-21T01:04:36.206Z,50.4
2017-09-21T01:05:38.333Z,50.4
2017-09-21T01:06:40.461Z,50.5
2017-09-21T01:07:42.599Z,50.9
2017-09-21T01:08:44.742Z,50.1
2017-09-21T01:09:46.513Z,50.4
2017-09-21T01:10:48.304Z,50.4
2017-09-21T01:11:50.440Z,50.4
2017-09-21T01:12:51.902Z,50.3
2017-09-21T01:13:53.681Z,50.5
2017-09-21T01:14:55.473Z,50.7
2017-09-21T01:15:56.910Z,50.3
2017-09-21T01:16:58.694Z,50.2
2017-09-21T01:18:00.825Z,50.1
2017-09-21T01:19:02.280Z,50.3
2017-09-21T01:20:04.408Z,50.2
2017-09-21T01:21:05.867Z,50.2
2017-09-21T01:22:07.994Z,50.3
2017-09-21T01:23:09.142Z,50.1
2017-09-21T01:24:11.270Z,50.2
2017-09-21T01:25:13.068Z,50.2
2017-09-21T01:26:14.545Z,50.3
2017-09-21T01:27:16.321Z,50.2
2017-09-21T01:28:18.114Z,50.3
2017-09-21T01:29:20.264Z,50.1
2017-09-21T01:30:21.365Z,50.7
2017-09-21T01:31:23.497Z,50.1
2017-09-21T01:32:25.624Z,50.3
2017-09-21T01:33:27.063Z,50.1
2017-09-21T01:34:28.835Z,50.2
2017-09-21T01:35:29.943Z,50.2
2017-09-21T01:36:31.712Z,50.1
2017-09-21T01:37:33.170Z,50.2
2017-09-21T01:38:34.940Z,50.2
2017-09-21T01:39:36.398Z,50.7
2017-09-21T01:40:37.858Z,50
2017-09-21T01:41:39.980Z,50.2
2017-09-21T01:42:41.776Z,50.4
2017-09-21T01:43:43.231Z,50.7
2017-09-21T01:44:45.030Z,50.4
2017-09-21T01:45:46.472Z,50.3
2017-09-21T01:46:48.598Z,50.3
2017-09-21T01:47:49.703Z,50.4
2017-09-21T01:48:51.498Z,50.5
2017-09-21T01:49:52.939Z,50.2
2017-09-21T01:50:55.066Z,50.2
2017-09-21T01:51:56.216Z,50.7
2017-09-21T01:52:58.331Z,50.3
2017-09-21T01:53:59.768Z,50.3
2017-09-21T01:55:01.206Z,50.5
2017-09-21T01:56:02.998Z,50.3
2017-09-21T01:57:05.127Z,50.4
2017-09-21T01:58:06.918Z,50.8
2017-09-21T01:59:08.692Z,50.3
2017-09-21T02:00:10.153Z,50.4
2017-09-21T02:01:11.948Z,50.4
2017-09-21T02:02:13.403Z,50.3
2017-09-21T02:03:15.530Z,50.5
2017-09-21T02:04:17.660Z,50.3
2017-09-21T02:05:19.789Z,50.4
2017-09-21T02:06:21.255Z,50.4
2017-09-21T02:07:23.382Z,50.4
2017-09-21T02:08:25.511Z,50.5
2017-09-21T02:09:27.304Z,50.3
2017-09-21T02:10:29.431Z,50.2
2017-09-21T02:11:31.201Z,50.4
2017-09-21T02:12:32.996Z,50.1
2017-09-21T02:13:34.431Z,50.2
2017-09-21T02:14:35.874Z,50.1
2017-09-21T02:15:37.310Z,50.6
2017-09-21T02:16:39.436Z,50.1
2017-09-21T02:17:40.873Z,50.5
2017-09-21T02:18:41.974Z,50.5
2017-09-21T02:19:43.077Z,50.5
2017-09-21T02:20:44.870Z,50.5
2017-09-21T02:21:46.661Z,50.5
2017-09-21T02:22:48.119Z,50.7
2017-09-21T02:23:50.245Z,50.2
2017-09-21T02:24:52.037Z,50.6
2017-09-21T02:25:54.208Z,50.3
2017-09-21T02:26:55.978Z,50.3
2017-09-21T02:27:57.414Z,50.5
2017-09-21T02:28:58.870Z,50.4
2017-09-21T02:30:00.309Z,50.6
2017-09-21T02:31:02.105Z,50.2
2017-09-21T02:32:03.592Z,50.7
2017-09-21T02:33:05.387Z,50.5
2017-09-21T02:34:07.167Z,50.5
2017-09-21T02:35:08.629Z,50.2
2017-09-21T02:36:10.063Z,50.5
2017-09-21T02:37:11.500Z,50.4
2017-09-21T02:38:13.279Z,50.5
2017-09-21T02:39:15.072Z,50.4
2017-09-21T02:40:17.198Z,50.7
2017-09-21T02:41:18.971Z,50.5
2017-09-21T02:42:20.404Z,50.3
2017-09-21T02:43:21.889Z,50.2
2017-09-21T02:44:23.682Z,50.2
2017-09-21T02:45:25.453Z,50.4
2017-09-21T02:46:26.563Z,50.6
2017-09-21T02:47:28.349Z,50.5
2017-09-21T02:48:30.476Z,50.3
2017-09-21T02:49:32.278Z,50.4
2017-09-21T02:50:34.066Z,50.2
2017-09-21T02:51:35.528Z,50.5
2017-09-21T02:52:37.660Z,49.9
2017-09-21T02:53:39.796Z,50.2
2017-09-21T02:54:41.586Z,50.4
2017-09-21T02:55:42.358Z,50.5
2017-09-21T02:56:43.482Z,50.5
2017-09-21T02:57:45.611Z,50.5
2017-09-21T02:58:47.401Z,50.6
2017-09-21T02:59:48.850Z,50.5
2017-09-21T03:00:50.978Z,50.3
2017-09-21T03:01:52.414Z,50.5
2017-09-21T03:02:53.867Z,50.5
2017-09-21T03:03:55.993Z,50.5
2017-09-21T03:04:57.450Z,50.4
2017-09-21T03:05:59.577Z,50.4
2017-09-21T03:07:01.011Z,50.4
2017-09-21T03:08:02.472Z,50.4
2017-09-21T03:09:03.910Z,50.6
2017-09-21T03:10:06.039Z,50.4
2017-09-21T03:11:07.832Z,50.2
2017-09-21T03:12:09.299Z,50.1
2017-09-21T03:13:11.427Z,50.3
2017-09-21T03:14:13.554Z,49.9
2017-09-21T03:15:15.682Z,50.4
2017-09-21T03:16:16.785Z,50
2017-09-21T03:17:18.227Z,50.3
2017-09-21T03:18:20.350Z,50.3
2017-09-21T03:19:21.811Z,50.3
2017-09-21T03:20:23.254Z,50.4
2017-09-21T03:21:25.379Z,50.3
2017-09-21T03:22:27.163Z,50.3
2017-09-21T03:23:28.624Z,50.3
2017-09-21T03:24:30.400Z,50.2
2017-09-21T03:25:32.190Z,50.3
2017-09-21T03:26:33.985Z,50.4
2017-09-21T03:27:36.113Z,50.4
2017-09-21T03:28:37.906Z,50.4
2017-09-21T03:29:40.033Z,50.1
2017-09-21T03:30:41.825Z,50.1
2017-09-21T03:31:43.954Z,50.2
2017-09-21T03:32:45.392Z,50.1
2017-09-21T03:33:47.519Z,50.1
2017-09-21T03:34:49.646Z,50.2
2017-09-21T03:35:51.773Z,50.2
2017-09-21T03:36:52.875Z,50.1
2017-09-21T03:37:54.666Z,50.1
2017-09-21T03:38:56.458Z,50.2
2017-09-21T03:39:58.584Z,50.1
2017-09-21T03:41:00.394Z,50.2
2017-09-21T03:42:01.856Z,50.1
2017-09-21T03:43:03.651Z,50
2017-09-21T03:44:05.441Z,50.2
2017-09-21T03:45:06.898Z,50.2
2017-09-21T03:46:09.024Z,50.2
2017-09-21T03:47:11.170Z,50.1
2017-09-21T03:48:13.299Z,50.1
2017-09-21T03:49:15.425Z,50.2
2017-09-21T03:50:17.216Z,50.1
2017-09-21T03:51:18.987Z,49.9
2017-09-21T03:52:20.782Z,50.2
2017-09-21T03:53:22.220Z,50.1
2017-09-21T03:54:24.017Z,50.2
2017-09-21T03:55:25.119Z,50.3
2017-09-21T03:56:27.247Z,50.2
2017-09-21T03:57:29.379Z,50.3
2017-09-21T03:58:30.814Z,50.2
2017-09-21T03:59:32.942Z,50.2
2017-09-21T04:00:34.736Z,49.9
2017-09-21T04:01:36.529Z,50.3
2017-09-21T04:02:37.965Z,50.1
2017-09-21T04:03:40.092Z,50.3
2017-09-21T04:04:42.223Z,50.1
2017-09-21T04:05:44.350Z,50.1
2017-09-21T04:06:45.810Z,50.1
2017-09-21T04:07:47.583Z,50.1
2017-09-21T04:08:49.041Z,50.1
2017-09-21T04:09:50.484Z,50.2
2017-09-21T04:10:51.942Z,50.2
2017-09-21T04:11:53.731Z,50.1
2017-09-21T04:12:55.525Z,50.2
2017-09-21T04:13:57.652Z,50
2017-09-21T04:14:59.779Z,50.1
2017-09-21T04:16:01.571Z,50
2017-09-21T04:17:03.365Z,50.2
2017-09-21T04:18:05.161Z,50.1
2017-09-21T04:19:07.289Z,50.2
2017-09-21T04:20:09.414Z,50
2017-09-21T04:21:11.207Z,50.3
2017-09-21T04:22:12.644Z,50.1
2017-09-21T04:23:14.772Z,49.9
2017-09-21T04:24:16.563Z,49.6
2017-09-21T04:25:18.355Z,49.5
2017-09-21T04:26:19.816Z,49.6
2017-09-21T04:27:21.256Z,49.9
2017-09-21T04:28:23.049Z,49.8
2017-09-21T04:29:24.869Z,49.7
2017-09-21T04:30:27.001Z,49.8
2017-09-21T04:31:29.123Z,49.8
2017-09-21T04:32:30.593Z,49.7
2017-09-21T04:33:32.705Z,49.8
2017-09-21T04:34:34.834Z,49.9
2017-09-21T04:35:36.617Z,50
2017-09-21T04:36:38.065Z,50
2017-09-21T04:37:40.193Z,49.9
2017-09-21T04:38:41.984Z,49.8
2017-09-21T04:39:44.113Z,49.8
2017-09-21T04:40:45.549Z,49.9
2017-09-21T04:41:47.007Z,49.8
2017-09-21T04:42:48.797Z,49.9
2017-09-21T04:43:50.926Z,49.7
2017-09-21T04:44:52.384Z,49.7
2017-09-21T04:45:54.173Z,49.7
2017-09-21T04:46:56.302Z,49.6
2017-09-21T04:47:58.429Z,49.7
2017-09-21T04:49:00.221Z,49.7
2017-09-21T04:50:02.016Z,49.7
2017-09-21T04:51:03.787Z,49.7
2017-09-21T04:52:05.579Z,49.6
2017-09-21T04:53:07.351Z,49.7
2017-09-21T04:54:09.491Z,49.6
2017-09-21T04:55:11.614Z,49.9
2017-09-21T04:56:12.719Z,49.6
2017-09-21T04:57:14.510Z,49.9
2017-09-21T04:58:16.638Z,49.8
2017-09-21T04:59:18.763Z,49.7
2017-09-21T05:00:20.537Z,49.7
2017-09-21T05:01:21.997Z,49.7
2017-09-21T05:02:23.792Z,49.7
2017-09-21T05:03:25.589Z,49.7
2017-09-21T05:04:27.027Z,49.6
2017-09-21T05:05:28.822Z,49.7
2017-09-21T05:06:30.965Z,49.6
2017-09-21T05:07:33.085Z,49.6
2017-09-21T05:08:34.858Z,49.7
2017-09-21T05:09:36.297Z,49.7
2017-09-21T05:10:38.090Z,49.7
2017-09-21T05:11:39.862Z,49.7
2017-09-21T05:12:41.321Z,49.7
2017-09-21T05:13:42.782Z,49.8
2017-09-21T05:14:44.222Z,49.8
2017-09-21T05:15:46.344Z,49.4
2017-09-21T05:16:48.139Z,49.6
2017-09-21T05:17:50.267Z,49.6
2017-09-21T05:18:52.392Z,49.6
2017-09-21T05:19:54.184Z,49.7
2017-09-21T05:20:56.315Z,49.5
2017-09-21T05:21:58.125Z,49.7
2017-09-21T05:23:00.267Z,49.6
2017-09-21T05:24:01.725Z,49.6
2017-09-21T05:25:03.517Z,49.4
2017-09-21T05:26:04.954Z,49.7
2017-09-21T05:27:06.392Z,49.7
2017-09-21T05:28:08.519Z,49.6
2017-09-21T05:29:09.977Z,49.5
2017-09-21T05:30:11.767Z,49.6
2017-09-21T05:31:13.896Z,49.6
2017-09-21T05:32:15.356Z,49.6
2017-09-21T05:33:16.814Z,49.3
2017-09-21T05:34:18.589Z,49.3
2017-09-21T05:35:20.382Z,49.3
2017-09-21T05:36:21.506Z,49.2
2017-09-21T05:37:23.296Z,49.4
2017-09-21T05:38:25.423Z,49.4
2017-09-21T05:39:26.861Z,49.6
2017-09-21T05:40:28.989Z,49.4
2017-09-21T05:41:31.116Z,49.2
2017-09-21T05:42:32.556Z,49.4
2017-09-21T05:43:33.992Z,49.5
2017-09-21T05:44:36.118Z,49.4
2017-09-21T05:45:38.252Z,49.4
2017-09-21T05:46:39.707Z,49.4
2017-09-21T05:47:41.862Z,49.4
2017-09-21T05:48:43.994Z,49.7
2017-09-21T05:49:45.467Z,49.2
2017-09-21T05:50:47.324Z,49.5
2017-09-21T05:51:49.151Z,49.7
2017-09-21T05:52:50.942Z,49.3
2017-09-21T05:53:52.716Z,49.6
2017-09-21T05:54:54.875Z,49.5
2017-09-21T05:55:56.675Z,49.6
2017-09-21T05:56:58.466Z,49.8
2017-09-21T05:58:00.592Z,49.7
2017-09-21T05:59:01.717Z,49.9
2017-09-21T06:00:03.850Z,49.7
2017-09-21T06:01:05.281Z,49.7
2017-09-21T06:02:06.739Z,49.7
2017-09-21T06:03:08.552Z,49.7
2017-09-21T06:04:09.657Z,49.6
2017-09-21T06:05:11.430Z,49.9
2017-09-21T06:06:13.223Z,49.7
2017-09-21T06:07:14.666Z,49.5
2017-09-21T06:08:16.124Z,49.7
2017-09-21T06:09:17.560Z,49.6
2017-09-21T06:10:19.691Z,49.6
2017-09-21T06:11:21.819Z,49.7
2017-09-21T06:12:23.591Z,49.7
2017-09-21T06:13:25.385Z,49.8
2017-09-21T06:14:26.829Z,49.7
2017-09-21T06:15:28.601Z,49.6
2017-09-21T06:16:30.424Z,49.7
2017-09-21T06:17:32.223Z,49.7
2017-09-21T06:18:34.015Z,49.7
2017-09-21T06:19:35.451Z,49.7
2017-09-21T06:20:36.912Z,49.5
2017-09-21T06:21:38.377Z,49.7
2017-09-21T06:22:40.503Z,49.8
2017-09-21T06:23:41.282Z,49.7
2017-09-21T06:24:42.737Z,49.4
2017-09-21T06:25:43.836Z,49.7
2017-09-21T06:26:45.627Z,49.5
2017-09-21T06:27:47.756Z,49.6
2017-09-21T06:28:49.888Z,49.6
2017-09-21T06:29:51.677Z,49.4
2017-09-21T06:30:52.801Z,49.7
2017-09-21T06:31:54.241Z,49.5
2017-09-21T06:32:55.702Z,49.4
2017-09-21T06:33:57.490Z,49.3
2017-09-21T06:34:58.949Z,49.5
2017-09-21T06:36:00.743Z,49.5
2017-09-21T06:37:02.873Z,49.5
2017-09-21T06:38:04.998Z,49.5
2017-09-21T06:39:06.770Z,49.5
2017-09-21T06:40:08.542Z,49.4
2017-09-21T06:41:10.335Z,49.3
2017-09-21T06:42:11.773Z,49.4
2017-09-21T06:43:13.565Z,49.6
2017-09-21T06:44:15.339Z,49.3
2017-09-21T06:45:17.468Z,49.7
2017-09-21T06:46:19.260Z,49.5
2017-09-21T06:47:21.032Z,49.4
2017-09-21T06:48:22.829Z,49.4
2017-09-21T06:49:24.271Z,49.6
2017-09-21T06:50:26.404Z,49.7
2017-09-21T06:51:28.196Z,49.3
2017-09-21T06:52:29.987Z,49.3
2017-09-21T06:53:31.831Z,49.5
2017-09-21T06:54:32.931Z,49.4
2017-09-21T06:55:34.722Z,49.6
2017-09-21T06:56:36.850Z,49.3
2017-09-21T06:57:38.288Z,49.3
2017-09-21T06:58:40.063Z,49.3
2017-09-21T06:59:41.854Z,49.3
2017-09-21T07:00:42.624Z,49.3
2017-09-21T07:01:44.128Z,49.2
2017-09-21T07:02:45.607Z,49.2
2017-09-21T07:03:47.401Z,49.1
2017-09-21T07:04:48.877Z,49.4
2017-09-21T07:05:50.672Z,49.3
2017-09-21T07:06:52.444Z,49.2
2017-09-21T07:07:54.234Z,49.2
2017-09-21T07:08:56.364Z,49.3
2017-09-21T07:09:58.162Z,49.6
2017-09-21T07:10:59.958Z,49.6
2017-09-21T07:12:01.750Z,49.3
2017-09-21T07:13:03.185Z,49.4
2017-09-21T07:14:04.625Z,49.2
2017-09-21T07:15:06.469Z,48.9
2017-09-21T07:16:08.265Z,49.2
2017-09-21T07:17:10.071Z,48.7
2017-09-21T07:18:11.863Z,48.8
2017-09-21T07:19:13.997Z,48.9
2017-09-21T07:20:15.792Z,48.9
2017-09-21T07:21:16.897Z,49.1
2017-09-21T07:22:19.024Z,49.2
2017-09-21T07:23:20.461Z,48.8
2017-09-21T07:24:22.235Z,49.3
2017-09-21T07:25:24.027Z,48.8
2017-09-21T07:26:25.491Z,49
2017-09-21T07:27:27.618Z,49
2017-09-21T07:28:29.392Z,49.1
2017-09-21T07:29:31.521Z,49.2
2017-09-21T07:30:33.292Z,48.9
2017-09-21T07:31:35.085Z,48.9
2017-09-21T07:32:36.531Z,49
2017-09-21T07:33:37.987Z,49.2
2017-09-21T07:34:40.154Z,49
2017-09-21T07:35:41.961Z,49
2017-09-21T07:36:43.735Z,48.8
2017-09-21T07:37:45.505Z,48.9
2017-09-21T07:38:46.965Z,49.1
2017-09-21T07:39:48.761Z,49
2017-09-21T07:40:50.221Z,49.2
2017-09-21T07:41:51.682Z,48.9
2017-09-21T07:42:53.120Z,49.1
2017-09-21T07:43:54.916Z,48.8
2017-09-21T07:44:56.375Z,49
2017-09-21T07:45:58.166Z,49.1
2017-09-21T07:46:59.962Z,49.1
2017-09-21T07:48:01.755Z,48.9
2017-09-21T07:49:03.217Z,49.2
2017-09-21T07:50:04.654Z,48.9
2017-09-21T07:51:06.832Z,49.6
2017-09-21T07:52:08.604Z,49.1
2017-09-21T07:53:10.440Z,49.2
2017-09-21T07:54:12.579Z,49.7
2017-09-21T07:55:14.663Z,49.2
2017-09-21T07:56:16.545Z,49.6
2017-09-21T07:57:18.372Z,49.2
2017-09-21T07:58:20.183Z,49.4
2017-09-21T07:59:22.008Z,49.4
2017-09-21T08:00:23.469Z,49.5
2017-09-21T08:01:25.567Z,49.3
2017-09-21T08:02:28.519Z,49.3
2017-09-21T08:03:30.415Z,49.1
2017-09-21T08:04:31.861Z,49.2
2017-09-21T08:05:33.991Z,49.2
2017-09-21T08:06:35.849Z,49.5
2017-09-21T08:07:37.696Z,49.3
2017-09-21T08:08:39.821Z,49.5
2017-09-21T08:09:41.649Z,49.4
2017-09-21T08:10:43.107Z,49.3
2017-09-21T08:11:44.900Z,49.4
2017-09-21T08:12:47.060Z,49.2
2017-09-21T08:13:48.517Z,49.2
2017-09-21T08:14:50.711Z,49.4
2017-09-21T08:15:52.873Z,49
2017-09-21T08:16:54.731Z,49.6
2017-09-21T08:17:56.530Z,49.5
2017-09-21T08:18:58.007Z,49.4
2017-09-21T08:19:59.804Z,49.6
2017-09-21T08:21:01.596Z,49.3
2017-09-21T08:22:02.700Z,49.4
2017-09-21T08:23:04.496Z,49.2
2017-09-21T08:24:05.956Z,48.8
2017-09-21T08:25:08.085Z,48.8
2017-09-21T08:26:09.881Z,48.9
2017-09-21T08:27:11.323Z,49.1
2017-09-21T08:28:13.454Z,49
2017-09-21T08:29:15.231Z,49
2017-09-21T08:30:16.696Z,48.9
2017-09-21T08:31:18.135Z,49
2017-09-21T08:32:19.930Z,49
2017-09-21T08:33:22.064Z,49.6
2017-09-21T08:34:24.204Z,49
2017-09-21T08:35:25.652Z,48.9
2017-09-21T08:36:27.780Z,49
2017-09-21T08:37:29.576Z,48.9
2017-09-21T08:38:31.018Z,48.9
2017-09-21T08:39:32.811Z,48.8
2017-09-21T08:40:34.606Z,48.8
2017-09-21T08:41:35.708Z,49
2017-09-21T08:42:37.149Z,48.9
2017-09-21T08:43:39.279Z,49.1
2017-09-21T08:44:41.072Z,48.9
2017-09-21T08:45:42.842Z,48.9
2017-09-21T08:46:44.638Z,49.2
2017-09-21T08:47:46.433Z,49
2017-09-21T08:48:47.879Z,48.9
2017-09-21T08:49:49.339Z,48.9
2017-09-21T08:50:50.779Z,48.9
2017-09-21T08:51:52.214Z,49.1
2017-09-21T08:52:53.318Z,48.9
2017-09-21T08:53:54.756Z,49
2017-09-21T08:54:56.192Z,49.1
2017-09-21T08:55:57.665Z,49.3
2017-09-21T08:56:59.799Z,49.1
2017-09-21T08:58:01.592Z,48.6
2017-09-21T08:59:03.055Z,49.2
2017-09-21T09:00:04.848Z,49.1
2017-09-21T09:01:06.978Z,49.2
2017-09-21T09:02:08.775Z,49.1
2017-09-21T09:03:10.564Z,49
2017-09-21T09:04:12.031Z,49
2017-09-21T09:05:13.492Z,49.2
2017-09-21T09:06:15.289Z,49.3
2017-09-21T09:07:17.079Z,48.7
2017-09-21T09:08:18.515Z,48.7
2017-09-21T09:09:20.648Z,48.7
2017-09-21T09:10:22.775Z,49.1
2017-09-21T09:11:23.881Z,48.7
2017-09-21T09:12:25.653Z,49
2017-09-21T09:13:27.447Z,49.2
2017-09-21T09:14:29.260Z,49.1
2017-09-21T09:15:30.700Z,48.6
2017-09-21T09:16:32.827Z,49.3
2017-09-21T09:17:34.297Z,49.4
2017-09-21T09:18:36.088Z,48.7
2017-09-21T09:19:37.881Z,48.7
2017-09-21T09:20:39.322Z,48.6
2017-09-21T09:21:41.118Z,48.8
2017-09-21T09:22:42.579Z,49
2017-09-21T09:23:44.377Z,48.6
2017-09-21T09:24:46.505Z,49.4
2017-09-21T09:25:48.334Z,48.6
2017-09-21T09:26:49.773Z,48.6
2017-09-21T09:27:50.881Z,49
2017-09-21T09:28:52.340Z,49
2017-09-21T09:29:53.780Z,49
2017-09-21T09:30:55.908Z,49
2017-09-21T09:31:57.735Z,49.1
2017-09-21T09:32:59.861Z,49
2017-09-21T09:34:02.005Z,49
2017-09-21T09:35:03.443Z,49
2017-09-21T09:36:05.218Z,49
2017-09-21T09:37:07.015Z,49
2017-09-21T09:38:08.475Z,48.9
2017-09-21T09:39:10.268Z,49.2
2017-09-21T09:40:11.709Z,48.9
2017-09-21T09:41:13.897Z,49.2
2017-09-21T09:42:16.030Z,49.1
2017-09-21T09:43:17.486Z,49.6
2017-09-21T09:44:19.328Z,48.8
2017-09-21T09:45:20.436Z,49.5
2017-09-21T09:46:21.874Z,49.4
2017-09-21T09:47:23.676Z,49.5
2017-09-21T09:48:25.808Z,49.3
2017-09-21T09:49:27.245Z,49.3
2017-09-21T09:50:28.687Z,49.3
2017-09-21T09:51:30.153Z,49.3
2017-09-21T09:52:31.602Z,49.4
2017-09-21T09:53:33.393Z,49.5
2017-09-21T09:54:35.525Z,49.2
2017-09-21T09:55:37.323Z,49.3
2017-09-21T09:56:39.115Z,49.4
2017-09-21T09:57:41.243Z,49.2
2017-09-21T09:58:43.037Z,49.3
2017-09-21T09:59:44.836Z,49.3
2017-09-21T10:00:46.631Z,49.3
2017-09-21T10:01:48.067Z,49.3
2017-09-21T10:02:50.259Z,49.3
2017-09-21T10:03:52.032Z,49.3
2017-09-21T10:04:53.149Z,49.1
2017-09-21T10:05:54.949Z,49.1
2017-09-21T10:06:57.085Z,49.2
2017-09-21T10:07:58.518Z,49.2
2017-09-21T10:09:00.649Z,49.2
2017-09-21T10:10:02.434Z,49.2
2017-09-21T10:11:04.558Z,49.1
2017-09-21T10:12:05.661Z,49.2
2017-09-21T10:13:07.434Z,49.4
2017-09-21T10:14:09.203Z,49.6
2017-09-21T10:15:11.402Z,49.3
2017-09-21T10:16:13.529Z,49.5
2017-09-21T10:17:15.322Z,49.1
2017-09-21T10:18:17.451Z,49.1
2017-09-21T10:19:18.910Z,49.5
2017-09-21T10:20:20.713Z,49.3
2017-09-21T10:21:22.504Z,49.5
2017-09-21T10:22:24.305Z,49.4
2017-09-21T10:23:25.829Z,49.4
2017-09-21T10:24:27.304Z,49.3
2017-09-21T10:25:28.084Z,49.5
2017-09-21T10:26:29.884Z,49.3
2017-09-21T10:27:31.422Z,49.2
2017-09-21T10:28:33.221Z,49.7
2017-09-21T10:29:35.015Z,49.5
2017-09-21T10:30:36.138Z,49.3
2017-09-21T10:31:37.600Z,49.4
2017-09-21T10:32:39.731Z,49.2
2017-09-21T10:33:41.508Z,49.4
2017-09-21T10:34:43.311Z,49.4
2017-09-21T10:35:45.102Z,49.1
2017-09-21T10:36:46.898Z,49
2017-09-21T10:37:48.003Z,49.3
2017-09-21T10:38:49.797Z,49.3
2017-09-21T10:39:51.235Z,49.4
2017-09-21T10:40:53.041Z,49.2
2017-09-21T10:41:55.163Z,49.1
2017-09-21T10:42:56.940Z,49.3
2017-09-21T10:43:58.061Z,49.6
2017-09-21T10:45:00.192Z,49.3
2017-09-21T10:46:01.987Z,49.2
2017-09-21T10:47:03.430Z,49.2
2017-09-21T10:48:04.863Z,49.6
2017-09-21T10:49:06.993Z,49.6
2017-09-21T10:50:08.455Z,49.1
2017-09-21T10:51:10.587Z,48.7
2017-09-21T10:52:12.399Z,49.6
2017-09-21T10:53:14.525Z,48.8
2017-09-21T10:54:16.653Z,49.6
2017-09-21T10:55:18.784Z,49.1
2017-09-21T10:56:20.914Z,49.1
2017-09-21T10:57:22.686Z,49.1
2017-09-21T10:58:23.790Z,48.9
2017-09-21T10:59:24.917Z,49.1
2017-09-21T11:00:26.714Z,48.9
2017-09-21T11:01:28.557Z,49
2017-09-21T11:02:30.689Z,49.1
2017-09-21T11:03:32.461Z,48.9
2017-09-21T11:04:33.924Z,49.1
2017-09-21T11:05:35.745Z,48.9
2017-09-21T11:06:37.541Z,49.1
2017-09-21T11:07:39.339Z,48.9
2017-09-21T11:08:40.508Z,48.9
2017-09-21T11:09:41.946Z,49
2017-09-21T11:10:43.384Z,48.9
2017-09-21T11:11:45.155Z,48.9
2017-09-21T11:12:46.259Z,48.9
2017-09-21T11:13:48.035Z,49.1
2017-09-21T11:14:49.478Z,49.1
2017-09-21T11:15:50.918Z,49
2017-09-21T11:16:52.024Z,49.1
2017-09-21T11:17:53.818Z,49.1
2017-09-21T11:18:55.256Z,49.3
2017-09-21T11:19:57.050Z,49.1
2017-09-21T11:20:59.179Z,49.1
2017-09-21T11:22:00.639Z,49.3
2017-09-21T11:23:02.167Z,49
2017-09-21T11:24:03.609Z,49.1
2017-09-21T11:25:04.713Z,49.3
2017-09-21T11:26:06.843Z,48.7
2017-09-21T11:27:08.978Z,49.2
2017-09-21T11:28:10.772Z,48.6
2017-09-21T11:29:12.550Z,49
2017-09-21T11:30:14.344Z,48.7
2017-09-21T11:31:15.448Z,49.4
2017-09-21T11:32:16.909Z,49.2
2017-09-21T11:33:18.080Z,49.3
2017-09-21T11:34:19.183Z,48.7
2017-09-21T11:35:21.309Z,48.7
2017-09-21T11:36:23.204Z,48.7
2017-09-21T11:37:25.000Z,48.6
2017-09-21T11:38:26.796Z,48.8
2017-09-21T11:39:28.237Z,48.9
2017-09-21T11:40:29.695Z,48.9
2017-09-21T11:41:31.471Z,49.4
2017-09-21T11:42:33.601Z,49
2017-09-21T11:43:35.396Z,48.8
2017-09-21T11:44:37.532Z,49
2017-09-21T11:45:39.656Z,49
2017-09-21T11:46:41.451Z,49.1
2017-09-21T11:47:42.557Z,49.6
2017-09-21T11:48:44.692Z,49.4
2017-09-21T11:49:46.488Z,49.2
2017-09-21T11:50:47.930Z,49.4
2017-09-21T11:51:50.109Z,49.4
2017-09-21T11:52:52.242Z,48.8
2017-09-21T11:53:53.699Z,49.1
2017-09-21T11:54:55.492Z,49
2017-09-21T11:55:56.953Z,48.9
2017-09-21T11:56:58.106Z,49.3
2017-09-21T11:57:59.543Z,49.3
2017-09-21T11:59:00.648Z,49.3
2017-09-21T12:00:02.773Z,49.3
2017-09-21T12:01:04.569Z,49
2017-09-21T12:02:06.701Z,49.4
2017-09-21T12:03:08.139Z,49
2017-09-21T12:04:09.961Z,49
2017-09-21T12:05:11.069Z,49.3
2017-09-21T12:06:12.863Z,48.9
2017-09-21T12:07:14.301Z,49.2
2017-09-21T12:08:16.091Z,49.2
2017-09-21T12:09:18.224Z,49.5
2017-09-21T12:10:20.357Z,49.5
2017-09-21T12:11:22.500Z,49.1
2017-09-21T12:12:24.281Z,49.3
2017-09-21T12:13:26.422Z,49
2017-09-21T12:14:27.896Z,48.9
2017-09-21T12:15:29.648Z,49.2
2017-09-21T12:16:32.182Z,49
2017-09-21T12:17:34.386Z,49
2017-09-21T12:18:35.919Z,49
2017-09-21T12:19:37.382Z,49.3
2017-09-21T12:20:38.853Z,49.1
2017-09-21T12:21:40.650Z,49.1
2017-09-21T12:22:41.757Z,49
2017-09-21T12:23:43.539Z,49.1
2017-09-21T12:24:45.345Z,49.2
2017-09-21T12:25:46.785Z,49.1
2017-09-21T12:26:48.586Z,48.7
2017-09-21T12:27:50.045Z,48.8
2017-09-21T12:28:52.180Z,48.8
2017-09-21T12:29:53.298Z,49
2017-09-21T12:30:54.769Z,48.8
2017-09-21T12:31:56.568Z,48.8
2017-09-21T12:32:57.677Z,48.9
2017-09-21T12:33:59.810Z,48.9
2017-09-21T12:35:01.586Z,48.9
2017-09-21T12:36:03.381Z,48.8
2017-09-21T12:37:05.195Z,48.7
2017-09-21T12:38:06.971Z,48.9
2017-09-21T12:39:08.772Z,49.1
2017-09-21T12:40:10.235Z,49
2017-09-21T12:41:12.010Z,49.2
2017-09-21T12:42:13.476Z,49.1
2017-09-21T12:43:15.274Z,48.9
2017-09-21T12:44:17.408Z,49
2017-09-21T12:45:18.875Z,48.9
2017-09-21T12:46:20.672Z,49.5
2017-09-21T12:47:22.135Z,49
2017-09-21T12:48:24.267Z,48.9
2017-09-21T12:49:26.417Z,49.3
2017-09-21T12:50:27.525Z,49
2017-09-21T12:51:29.330Z,49.5
2017-09-21T12:52:31.461Z,49.2
2017-09-21T12:53:32.924Z,48.9
2017-09-21T12:54:34.720Z,49.2
2017-09-21T12:55:35.822Z,48.9
2017-09-21T12:56:37.620Z,49.2
2017-09-21T12:57:39.416Z,48.8
2017-09-21T12:58:41.217Z,49.1
2017-09-21T12:59:43.015Z,48.9
2017-09-21T13:00:44.811Z,48.8
2017-09-21T13:01:46.612Z,49.1
2017-09-21T13:02:48.407Z,49.4
2017-09-21T13:03:49.867Z,48.9
2017-09-21T13:04:51.997Z,48.9
2017-09-21T13:05:53.460Z,49
2017-09-21T13:06:55.591Z,49
2017-09-21T13:07:57.034Z,49.1
2017-09-21T13:08:58.162Z,48.9
2017-09-21T13:09:59.651Z,48.7
2017-09-21T13:11:01.091Z,49
2017-09-21T13:12:02.531Z,48.9
2017-09-21T13:13:04.307Z,48.8
2017-09-21T13:14:05.077Z,49
2017-09-21T13:15:06.547Z,48.9
2017-09-21T13:16:07.985Z,48.9
2017-09-21T13:17:09.779Z,48.9
2017-09-21T13:18:11.257Z,48.8
2017-09-21T13:19:13.057Z,48.8
2017-09-21T13:20:14.523Z,48.8
2017-09-21T13:21:16.322Z,49
2017-09-21T13:22:17.779Z,49
2017-09-21T13:23:19.219Z,49
2017-09-21T13:24:21.017Z,48.8
2017-09-21T13:25:22.816Z,48.9
2017-09-21T13:26:24.614Z,48.8
2017-09-21T13:27:26.415Z,48.6
2017-09-21T13:28:28.547Z,48.9
2017-09-21T13:29:30.687Z,48.9
2017-09-21T13:30:32.826Z,48.9
2017-09-21T13:31:34.286Z,48.5
2017-09-21T13:32:36.094Z,48.9
2017-09-21T13:33:37.904Z,48.6
2017-09-21T13:34:39.707Z,48.7
2017-09-21T13:35:41.839Z,48.8
2017-09-21T13:36:43.281Z,49
2017-09-21T13:37:45.085Z,48.8
2017-09-21T13:38:47.213Z,48.7
2017-09-21T13:39:49.008Z,48.6
2017-09-21T13:40:50.470Z,48.7
2017-09-21T13:41:51.912Z,49
2017-09-21T13:42:53.715Z,49
2017-09-21T13:43:55.151Z,49
2017-09-21T13:44:56.954Z,49.4
2017-09-21T13:45:58.418Z,49.3
2017-09-21T13:47:00.549Z,49.3
2017-09-21T13:48:01.655Z,49.2